Time;durP1;ratioP1;P1;durP2;ratioP2;P2;SDS_P1;SDS_P2;PMS_P1;PMS_P2;Temp;Humidity;BMP_temperature;BMP_pressure;BME280_temperature;BME280_humidity;BME280_pressure;Samples;Min_cycle;Max_cycle;Signal;HPM_P1;HPM_P2
2021/10/15 00:00:05;;;;;;;2.78;1.83;;;;;;;17.79;45.01;101480.09;4992712;28;20046;-67
2021/10/15 00:02:32;;;;;;;5.70;2.08;;;;;;;17.75;44.76;101470.41;4988371;28;20093;-67
2021/10/15 00:04:59;;;;;;;3.97;1.98;;;;;;;17.73;45.18;101466.91;4975837;28;20047;-67
2021/10/15 00:07:25;;;;;;;4.50;2.25;;;;;;;17.70;45.01;101469.94;4990185;28;20145;-67
2021/10/15 00:09:52;;;;;;;4.10;2.00;;;;;;;17.68;44.86;101467.31;4999233;28;20072;-67
2021/10/15 00:12:18;;;;;;;3.80;2.30;;;;;;;17.67;44.88;101468.31;5001411;28;20493;-67
2021/10/15 00:14:45;;;;;;;3.88;2.25;;;;;;;17.65;44.67;101466.69;4992001;28;20054;-67
2021/10/15 00:17:15;;;;;;;5.03;2.22;;;;;;;17.63;44.97;101466.81;4972111;28;20516;-67
2021/10/15 00:19:41;;;;;;;4.45;2.28;;;;;;;17.61;44.55;101465.22;4990365;28;20468;-66
2021/10/15 00:22:08;;;;;;;3.60;2.05;;;;;;;17.58;44.72;101454.47;4971494;28;20050;-67
2021/10/15 00:24:35;;;;;;;4.88;2.45;;;;;;;17.55;44.98;101452.00;4972127;28;20129;-67
2021/10/15 00:27:02;;;;;;;4.07;1.95;;;;;;;17.54;44.63;101458.50;4991370;28;20137;-67
2021/10/15 00:29:28;;;;;;;4.30;2.15;;;;;;;17.51;44.91;101454.16;4992871;28;20101;-67
2021/10/15 00:31:55;;;;;;;3.70;2.35;;;;;;;17.50;44.47;101447.78;4991472;28;20050;-67
2021/10/15 00:34:22;;;;;;;4.90;2.60;;;;;;;17.47;45.02;101437.06;4991944;28;20441;-67
2021/10/15 00:36:49;;;;;;;3.80;2.10;;;;;;;17.45;44.50;101443.69;4988932;28;20050;-67
2021/10/15 00:39:16;;;;;;;4.10;2.42;;;;;;;17.43;44.87;101434.72;4992140;28;20046;-67
2021/10/15 00:41:43;;;;;;;3.38;1.90;;;;;;;17.42;44.45;101442.09;4990973;28;20073;-67
2021/10/15 00:44:13;;;;;;;4.47;2.30;;;;;;;17.41;44.39;101433.97;4991746;28;20145;-67
2021/10/15 00:46:41;;;;;;;4.80;2.30;;;;;;;17.37;44.57;101427.03;4989832;28;20046;-67
2021/10/15 00:49:10;;;;;;;4.45;2.25;;;;;;;17.34;44.72;101422.66;4989082;28;20116;-67
2021/10/15 00:51:39;;;;;;;4.22;2.10;;;;;;;17.33;44.53;101422.78;4991441;28;20549;-67
2021/10/15 00:54:05;;;;;;;4.30;2.20;;;;;;;17.31;44.85;101417.41;4994874;28;20130;-67
2021/10/15 00:56:32;;;;;;;4.00;2.20;;;;;;;17.30;44.62;101418.41;4989041;28;20486;-67
2021/10/15 00:59:01;;;;;;;5.72;2.47;;;;;;;17.31;44.70;101417.41;4989072;28;20046;-67
2021/10/15 01:01:29;;;;;;;3.92;2.03;;;;;;;17.29;44.89;101415.84;4991268;28;20112;-67
2021/10/15 01:04:00;;;;;;;4.60;1.92;;;;;;;17.29;44.84;101407.59;4987800;28;20046;-67
2021/10/15 01:06:31;;;;;;;3.47;2.05;;;;;;;17.28;44.51;101408.59;4989645;28;20141;-67
2021/10/15 01:08:59;;;;;;;3.40;2.05;;;;;;;17.25;44.86;101397.88;4988387;28;20055;-67
2021/10/15 01:11:27;;;;;;;3.38;1.88;;;;;;;17.24;44.96;101398.88;4974571;28;20065;-67
2021/10/15 01:13:54;;;;;;;4.18;2.40;;;;;;;17.23;44.98;101402.63;4990841;28;20046;-67
2021/10/15 01:16:29;;;;;;;4.57;2.40;;;;;;;17.24;44.59;101404.38;4989336;28;20050;-67
2021/10/15 01:19:00;;;;;;;4.18;2.00;;;;;;;17.21;44.74;101401.91;4989922;28;20050;-67
2021/10/15 01:21:28;;;;;;;4.63;2.10;;;;;;;17.18;44.58;101392.06;4989169;28;20100;-67
2021/10/15 01:23:55;;;;;;;4.90;2.28;;;;;;;17.15;44.96;101386.81;4988934;28;20074;-67
2021/10/15 01:26:22;;;;;;;4.35;2.38;;;;;;;17.14;44.58;101379.59;4990459;28;20058;-67
2021/10/15 01:28:51;;;;;;;4.28;1.95;;;;;;;17.13;44.62;101380.59;4990428;28;20077;-67
2021/10/15 01:31:18;;;;;;;3.78;1.98;;;;;;;17.11;44.74;101374.38;4990933;28;20458;-67
2021/10/15 01:33:45;;;;;;;3.45;2.10;;;;;;;17.09;45.01;101377.25;4988019;28;20136;-67
2021/10/15 01:36:11;;;;;;;5.05;2.30;;;;;;;17.07;44.84;101372.88;4989708;28;20077;-67
2021/10/15 01:38:38;;;;;;;4.10;2.40;;;;;;;17.04;44.67;101365.81;4990013;28;20078;-67
2021/10/15 01:41:05;;;;;;;4.85;2.50;;;;;;;17.05;44.52;101363.91;4990166;28;20054;-67
2021/10/15 01:43:31;;;;;;;4.53;2.42;;;;;;;17.01;44.79;101360.56;4987033;28;20054;-67
2021/10/15 01:45:59;;;;;;;4.95;2.40;;;;;;;17.02;44.54;101358.72;4988856;28;20065;-67
2021/10/15 01:48:26;;;;;;;3.63;2.08;;;;;;;16.98;44.84;101355.34;4987518;28;20643;-67
2021/10/15 01:50:53;;;;;;;4.80;2.30;;;;;;;16.97;44.91;101361.81;4990076;28;20066;-67
2021/10/15 01:53:20;;;;;;;5.35;2.50;;;;;;;16.95;44.64;101357.50;4989436;28;20069;-67
2021/10/15 01:55:47;;;;;;;5.40;2.50;;;;;;;16.93;44.50;101348.53;4989374;28;20682;-67
2021/10/15 01:58:16;;;;;;;4.90;2.40;;;;;;;16.90;44.53;101344.16;4989974;28;20371;-67
2021/10/15 02:00:44;;;;;;;3.53;2.03;;;;;;;16.88;44.72;101348.94;4987721;28;20469;-67
2021/10/15 02:03:11;;;;;;;4.82;2.38;;;;;;;16.87;44.97;101349.06;4987764;28;20057;-67
2021/10/15 02:05:38;;;;;;;4.95;2.88;;;;;;;16.84;44.58;101341.94;4974287;28;20089;-67
2021/10/15 02:08:05;;;;;;;4.88;2.05;;;;;;;16.83;44.91;101336.59;4989421;28;20181;-67
2021/10/15 02:10:32;;;;;;;4.25;2.38;;;;;;;16.82;44.84;101340.31;4989811;28;20050;-67
2021/10/15 02:12:59;;;;;;;3.78;2.38;;;;;;;16.79;44.58;101333.25;4972777;28;20534;-67
2021/10/15 02:15:25;;;;;;;5.07;2.70;;;;;;;16.78;45.10;101328.75;4989986;28;20129;-67
2021/10/15 02:17:52;;;;;;;4.20;2.70;;;;;;;16.78;44.96;101322.41;4971343;28;20120;-67
2021/10/15 02:20:19;;;;;;;4.60;2.67;;;;;;;16.76;44.63;101328.03;4990352;28;20137;-67
2021/10/15 02:22:48;;;;;;;6.70;2.85;;;;;;;16.74;44.83;101319.91;4988030;28;20573;-67
2021/10/15 02:25:17;;;;;;;3.90;2.70;;;;;;;16.72;45.07;101316.44;4981473;28;20046;-67
2021/10/15 02:27:44;;;;;;;5.90;2.80;;;;;;;16.71;44.66;101317.47;4983426;28;20085;-67
2021/10/15 02:30:13;;;;;;;5.28;2.50;;;;;;;16.69;44.40;101313.97;4989644;28;20169;-68
2021/10/15 02:32:40;;;;;;;5.47;3.10;;;;;;;16.65;45.26;101311.59;4986913;28;20500;-66
2021/10/15 02:35:08;;;;;;;4.90;2.67;;;;;;;16.64;44.64;101309.84;4972588;28;20128;-67
2021/10/15 02:37:34;;;;;;;5.57;2.83;;;;;;;16.61;44.94;101305.53;4989263;28;20073;-67
2021/10/15 02:40:06;;;;;;;4.65;2.60;;;;;;;16.62;45.29;101306.41;4991580;28;20042;-67
2021/10/15 02:42:33;;;;;;;4.47;2.75;;;;;;;16.59;44.92;101290.16;4990307;28;20655;-67
2021/10/15 02:44:59;;;;;;;5.22;2.90;;;;;;;16.59;45.02;101295.66;4989078;28;20137;-67
2021/10/15 02:47:26;;;;;;;5.60;2.83;;;;;;;16.57;45.14;101287.53;4992147;28;20119;-67
2021/10/15 02:49:53;;;;;;;5.70;2.85;;;;;;;16.57;45.25;101284.81;4994462;28;20152;-67
2021/10/15 02:52:19;;;;;;;5.22;2.92;;;;;;;16.58;45.13;101274.72;4990862;28;20050;-67
2021/10/15 02:54:46;;;;;;;4.70;2.70;;;;;;;16.59;45.24;101281.94;4996917;28;20089;-67
2021/10/15 02:57:13;;;;;;;4.32;2.42;;;;;;;16.59;45.23;101282.81;4993846;28;20066;-67
2021/10/15 02:59:40;;;;;;;5.80;2.80;;;;;;;16.59;45.11;101276.47;4994306;28;20133;-67
2021/10/15 03:02:06;;;;;;;6.03;3.20;;;;;;;16.60;45.52;101283.69;5000930;28;20050;-67
2021/10/15 03:04:33;;;;;;;5.72;3.00;;;;;;;16.60;45.46;101273.59;4996214;28;20124;-67
2021/10/15 03:07:00;;;;;;;5.32;2.70;;;;;;;16.60;45.15;101269.97;4993381;28;20160;-67
2021/10/15 03:09:26;;;;;;;4.63;2.75;;;;;;;16.61;45.52;101275.38;4996584;28;20133;-67
2021/10/15 03:11:54;;;;;;;4.47;2.65;;;;;;;16.62;45.36;101270.75;4993939;28;20054;-68
2021/10/15 03:14:22;;;;;;;4.93;3.03;;;;;;;16.61;45.56;101267.13;4993474;28;20109;-67
2021/10/15 03:16:49;;;;;;;5.18;2.45;;;;;;;16.61;45.64;101253.44;4991099;28;20077;-68
2021/10/15 03:19:16;;;;;;;4.57;2.67;;;;;;;16.62;45.29;101263.41;4992062;28;20053;-67
2021/10/15 03:21:43;;;;;;;5.10;2.60;;;;;;;16.62;45.06;101263.41;4996815;28;20139;-68
2021/10/15 03:24:12;;;;;;;5.53;2.75;;;;;;;16.62;45.62;101260.66;4995392;28;20042;-67
2021/10/15 03:26:38;;;;;;;5.28;2.95;;;;;;;16.62;45.48;101260.66;4995514;28;20116;-68
2021/10/15 03:29:05;;;;;;;5.30;2.60;;;;;;;16.62;45.46;101260.66;4994366;28;20133;-67
2021/10/15 03:31:31;;;;;;;4.80;2.88;;;;;;;16.61;45.05;101250.69;4995579;28;20069;-67
2021/10/15 03:33:58;;;;;;;4.68;2.60;;;;;;;16.62;45.64;101246.09;4994709;28;20100;-67
2021/10/15 03:36:25;;;;;;;6.13;3.63;;;;;;;16.60;45.39;101243.44;4995089;28;20050;-68
2021/10/15 03:38:51;;;;;;;5.60;2.70;;;;;;;16.59;45.39;101238.94;4992887;28;20522;-67
2021/10/15 03:41:18;;;;;;;5.15;2.70;;;;;;;16.58;45.36;101231.72;4994849;28;20561;-67
2021/10/15 03:43:45;;;;;;;4.68;2.65;;;;;;;16.58;45.31;101237.19;4968703;28;20081;-68
2021/10/15 03:46:11;;;;;;;4.20;2.50;;;;;;;16.58;45.18;101236.34;4995137;28;20093;-68
2021/10/15 03:48:38;;;;;;;4.50;2.33;;;;;;;16.58;45.43;101233.59;4993633;28;20398;-67
2021/10/15 03:51:05;;;;;;;5.05;2.50;;;;;;;16.57;45.27;101234.59;4995833;28;20108;-67
2021/10/15 03:53:32;;;;;;;5.95;2.90;;;;;;;16.56;45.71;101236.47;5002098;28;20133;-67
2021/10/15 03:55:58;;;;;;;4.35;2.40;;;;;;;16.56;45.39;101236.47;4994723;28;20077;-67
2021/10/15 03:58:25;;;;;;;4.43;2.70;;;;;;;16.56;45.41;101235.59;4992590;28;20108;-68
2021/10/15 04:00:51;;;;;;;3.80;2.67;;;;;;;16.56;45.25;101232.84;4991679;28;20169;-67
2021/10/15 04:03:20;;;;;;;6.43;2.65;;;;;;;16.56;45.70;101233.72;4989884;28;20050;-67
2021/10/15 04:05:46;;;;;;;6.82;2.65;;;;;;;16.56;45.25;101239.19;4989156;28;20073;-67
2021/10/15 04:08:13;;;;;;;5.40;2.60;;;;;;;16.56;45.26;101230.97;4991099;28;20042;-67
2021/10/15 04:10:40;;;;;;;6.13;2.80;;;;;;;16.56;45.60;101230.09;4991310;28;20516;-67
2021/10/15 04:13:07;;;;;;;4.60;2.38;;;;;;;16.56;45.47;101233.72;4990121;28;20081;-67
2021/10/15 04:15:33;;;;;;;3.70;2.40;;;;;;;16.57;45.43;101226.38;4991260;28;20050;-67
2021/10/15 04:18:00;;;;;;;4.35;2.50;;;;;;;16.57;45.49;101218.16;4988507;28;20086;-67
2021/10/15 04:20:26;;;;;;;4.30;2.88;;;;;;;16.56;45.48;101211.78;4990927;28;20524;-67
2021/10/15 04:22:53;;;;;;;5.47;2.47;;;;;;;16.56;45.60;101213.66;4975280;28;20104;-68
2021/10/15 04:25:20;;;;;;;6.30;3.42;;;;;;;16.57;45.67;101212.66;4991797;28;20133;-67
2021/10/15 04:27:46;;;;;;;5.50;2.83;;;;;;;16.57;45.76;101197.09;4991030;28;20136;-68
2021/10/15 04:30:13;;;;;;;5.43;2.97;;;;;;;16.57;45.77;101193.47;4991735;28;20141;-68
2021/10/15 04:32:40;;;;;;;5.25;3.03;;;;;;;16.57;45.79;101198.94;4987045;28;20505;-67
2021/10/15 04:35:07;;;;;;;5.68;3.05;;;;;;;16.57;45.34;101186.13;4987766;28;20545;-67
2021/10/15 04:37:34;;;;;;;4.40;2.92;;;;;;;16.57;45.74;101196.22;4989356;28;20462;-67
2021/10/15 04:40:01;;;;;;;6.30;3.05;;;;;;;16.58;45.49;101195.22;4974645;28;20078;-67
2021/10/15 04:42:29;;;;;;;6.13;2.97;;;;;;;16.57;45.17;101190.72;4989006;28;20050;-67
2021/10/15 04:44:55;;;;;;;5.50;2.97;;;;;;;16.55;45.11;101193.63;4995113;28;20159;-68
2021/10/15 04:47:31;;;;;;;5.72;3.20;;;;;;;16.59;45.10;101191.47;4957685;28;20082;-67
2021/10/15 04:49:57;;;;;;;5.30;2.90;;;;;;;16.53;45.58;101186.53;4983833;28;20066;-67
2021/10/15 04:52:24;;;;;;;5.18;2.70;;;;;;;16.54;45.08;101182.78;4988489;28;20630;-67
2021/10/15 04:54:51;;;;;;;6.10;3.33;;;;;;;16.54;45.04;101183.66;4988551;28;20124;-68
2021/10/15 04:57:17;;;;;;;5.38;2.70;;;;;;;16.55;45.52;101181.78;4987718;28;20078;-67
2021/10/15 04:59:44;;;;;;;5.53;2.95;;;;;;;16.54;45.15;101186.41;4992194;28;20133;-67
2021/10/15 05:02:10;;;;;;;6.22;3.05;;;;;;;16.54;45.27;101182.78;4989114;28;20441;-68
2021/10/15 05:04:39;;;;;;;5.10;2.72;;;;;;;16.54;45.52;101180.06;4989574;28;20038;-68
2021/10/15 05:07:06;;;;;;;5.00;2.72;;;;;;;16.52;45.23;101177.44;4983081;28;20129;-67
2021/10/15 05:09:33;;;;;;;4.55;2.70;;;;;;;16.53;45.22;101175.56;4990559;28;20082;-68
2021/10/15 05:12:02;;;;;;;5.78;2.78;;;;;;;16.55;45.37;101179.06;4989338;28;20074;-68
2021/10/15 05:14:31;;;;;;;6.63;3.08;;;;;;;16.55;45.08;101177.19;4989662;28;20122;-68
2021/10/15 05:17:00;;;;;;;5.53;2.92;;;;;;;16.54;45.07;101180.06;4989356;28;20119;-67
2021/10/15 05:19:28;;;;;;;4.75;2.70;;;;;;;16.52;45.74;101171.94;4979467;28;20086;-68
2021/10/15 05:21:58;;;;;;;5.28;2.72;;;;;;;16.53;45.35;101175.56;4988616;28;20046;-67
2021/10/15 05:24:25;;;;;;;6.00;2.90;;;;;;;16.54;45.56;101174.56;4991854;28;20046;-68
2021/10/15 05:26:51;;;;;;;7.03;3.13;;;;;;;16.54;45.58;101171.81;4972706;28;20097;-68
2021/10/15 05:29:18;;;;;;;5.00;2.60;;;;;;;16.54;45.56;101164.47;4988999;28;20129;-67
2021/10/15 05:31:44;;;;;;;5.55;2.72;;;;;;;16.56;45.58;101173.41;4990533;28;20050;-68
2021/10/15 05:34:11;;;;;;;4.82;2.72;;;;;;;16.56;45.21;101165.19;4990731;28;20051;-68
2021/10/15 05:36:38;;;;;;;5.05;2.88;;;;;;;16.58;45.60;101167.81;4990442;28;20089;-67
2021/10/15 05:39:05;;;;;;;5.18;2.67;;;;;;;16.60;45.30;101165.81;4988628;28;20129;-67
2021/10/15 05:41:32;;;;;;;5.70;2.80;;;;;;;16.59;45.55;101162.19;4990670;28;20054;-67
2021/10/15 05:43:59;;;;;;;5.47;2.80;;;;;;;16.61;45.76;101162.09;4989788;28;20082;-68
2021/10/15 05:46:26;;;;;;;4.57;2.80;;;;;;;16.62;45.57;101166.59;4972705;28;20062;-67
2021/10/15 05:48:53;;;;;;;5.47;2.83;;;;;;;16.62;45.56;101161.09;4988318;28;20045;-67
2021/10/15 05:51:21;;;;;;;5.00;2.83;;;;;;;16.63;45.95;101169.19;4991216;28;20042;-67
2021/10/15 05:53:51;;;;;;;6.20;3.45;;;;;;;16.65;45.67;101163.56;5004516;28;20555;-67
2021/10/15 05:59:03;;;;;;;6.28;2.92;;;;;;;16.67;45.48;101172.53;4985713;28;20046;-67
2021/10/15 06:01:33;;;;;;;5.93;3.00;;;;;;;16.67;45.94;101173.38;4975227;28;20049;-67
2021/10/15 06:14:54;;;;;;;5.60;2.75;;;;;;;16.72;45.97;101151.03;4986875;28;20544;-67
2021/10/15 06:17:20;;;;;;;5.22;2.63;;;;;;;16.74;45.69;101146.28;4989204;28;20069;-67
2021/10/15 06:19:53;;;;;;;5.20;2.92;;;;;;;16.75;45.89;101153.53;4988679;28;20145;-67
2021/10/15 06:22:21;;;;;;;;;;;;;;;16.50;46.31;101157.50;4969165;28;20046;-67
2021/10/15 06:24:51;;;;;;;4.65;2.67;;;;;;;16.73;45.78;101163.75;4988706;28;20012;-67
2021/10/15 06:27:20;;;;;;;6.63;2.70;;;;;;;16.78;45.55;101171.59;4990477;28;20642;-67
2021/10/15 06:29:50;;;;;;;5.40;3.00;;;;;;;16.78;45.56;101168.84;4989996;28;20130;-68
2021/10/15 06:32:19;;;;;;;6.82;3.15;;;;;;;16.79;46.00;101173.34;4984825;28;20050;-68
2021/10/15 06:34:45;;;;;;;5.15;2.70;;;;;;;16.79;45.81;101167.84;4975756;28;20097;-67
2021/10/15 06:37:12;;;;;;;5.40;2.63;;;;;;;16.79;45.95;101165.09;4994831;28;20112;-67
2021/10/15 06:39:39;;;;;;;4.65;2.85;;;;;;;16.79;45.61;101171.47;4993323;28;20046;-66
2021/10/15 06:42:06;;;;;;;5.35;2.70;;;;;;;16.80;46.08;101164.09;4980299;28;20051;-67
2021/10/15 06:44:33;;;;;;;4.45;2.50;;;;;;;16.80;46.03;101158.63;4992701;28;20062;-67
2021/10/15 06:46:59;;;;;;;4.60;2.40;;;;;;;16.80;45.98;101162.19;4977914;28;20050;-67
2021/10/15 06:49:26;;;;;;;5.43;2.72;;;;;;;16.81;46.10;101158.47;4991615;28;20088;-67
2021/10/15 06:51:53;;;;;;;4.72;2.65;;;;;;;16.81;45.92;101152.97;4979877;28;20054;-67
2021/10/15 06:54:20;;;;;;;6.05;2.78;;;;;;;16.83;46.17;101158.31;4982565;28;20485;-67
2021/10/15 06:56:46;;;;;;;4.40;2.40;;;;;;;16.83;45.82;101164.69;4987728;28;20105;-67
2021/10/15 07:02:49;;;;;;;5.90;2.30;;;;;;;16.80;46.34;101158.63;4961741;28;20434;-68
2021/10/15 07:05:16;;;;;;;4.93;2.35;;;;;;;16.83;46.26;101161.94;5001390;28;20044;-68
2021/10/15 07:07:43;;;;;;;6.25;2.80;;;;;;;16.85;46.00;101162.69;4988607;28;20046;-68
2021/10/15 07:10:10;;;;;;;4.93;2.13;;;;;;;16.87;46.22;101163.44;4989303;28;20082;-68
2021/10/15 07:12:42;;;;;;;5.28;2.42;;;;;;;16.91;46.47;101170.38;4979774;28;20050;-68
2021/10/15 07:15:14;;;;;;;5.32;2.30;;;;;;;16.91;46.41;101172.22;4997690;28;20051;-68
2021/10/15 07:17:42;;;;;;;3.80;2.60;;;;;;;16.92;46.50;101169.38;4987747;28;20050;-68
2021/10/15 07:20:10;;;;;;;6.40;3.10;;;;;;;17.00;46.31;101169.56;4989659;28;20101;-68
2021/10/15 07:22:37;;;;;;;4.15;2.40;;;;;;;17.02;46.55;101164.81;4987312;28;20120;-68
2021/10/15 07:25:05;;;;;;;6.13;2.80;;;;;;;17.05;46.23;101164.50;4988160;28;20073;-68
2021/10/15 07:27:32;;;;;;;4.95;2.22;;;;;;;17.06;46.62;101158.03;4985721;28;20051;-68
2021/10/15 07:29:59;;;;;;;4.88;2.80;;;;;;;17.09;46.28;101145.91;4974659;28;20131;-68
2021/10/15 07:32:25;;;;;;;5.50;2.63;;;;;;;17.11;46.43;101163.13;4990261;28;20054;-68
2021/10/15 07:34:52;;;;;;;4.93;2.75;;;;;;;17.13;46.51;101156.47;4994146;28;20050;-68
2021/10/15 07:37:19;;;;;;;6.05;2.60;;;;;;;17.15;46.23;101166.44;4979601;28;20046;-68
2021/10/15 07:39:45;;;;;;;5.20;2.75;;;;;;;17.15;46.39;101172.78;4992840;28;20552;-68
2021/10/15 07:42:12;;;;;;;6.43;2.85;;;;;;;17.17;46.38;101161.69;4991531;28;20583;-68
2021/10/15 07:44:39;;;;;;;7.43;3.20;;;;;;;17.18;46.54;101163.44;4992304;28;20050;-69
2021/10/15 07:47:05;;;;;;;5.60;2.80;;;;;;;17.19;46.23;101159.69;4987621;28;20108;-68
2021/10/15 07:49:32;;;;;;;6.07;3.15;;;;;;;17.21;45.96;101165.91;4975391;28;20130;-68
2021/10/15 07:51:59;;;;;;;6.22;2.90;;;;;;;17.23;46.11;101162.00;4991576;28;20140;-68
2021/10/15 07:54:26;;;;;;;5.75;2.90;;;;;;;17.23;46.18;101167.50;4992487;28;20421;-68
2021/10/15 07:56:53;;;;;;;7.05;2.75;;;;;;;17.24;46.15;101169.22;4990418;28;20069;-67
2021/10/15 07:59:19;;;;;;;5.93;2.97;;;;;;;17.24;46.21;101171.09;4975470;28;20129;-68
2021/10/15 08:01:46;;;;;;;4.13;2.53;;;;;;;17.24;46.18;101173.84;4990572;28;20038;-68
2021/10/15 08:04:13;;;;;;;5.93;2.88;;;;;;;17.26;46.17;101180.06;4991772;28;20081;-68
2021/10/15 08:10:36;;;;;;;5.15;2.97;;;;;;;17.23;46.57;101181.22;4991328;28;20044;-67
2021/10/15 08:13:03;;;;;;;6.65;2.95;;;;;;;17.25;46.13;101186.56;4994320;28;20045;-68
2021/10/15 08:15:29;;;;;;;5.00;2.80;;;;;;;17.25;46.29;101190.19;5009418;28;20054;-67
2021/10/15 08:18:01;;;;;;;5.07;2.95;;;;;;;17.28;46.57;101194.53;5001026;28;20049;-66
2021/10/15 08:20:31;;;;;;;5.97;2.95;;;;;;;17.27;46.39;101190.91;5006494;28;20046;-67
2021/10/15 08:22:58;;;;;;;5.90;3.00;;;;;;;17.27;46.53;101187.31;4986044;28;20102;-68
2021/10/15 08:25:26;;;;;;;5.93;3.00;;;;;;;17.28;46.32;101183.56;4996437;28;20054;-67
2021/10/15 08:27:53;;;;;;;5.82;3.13;;;;;;;17.30;46.54;101195.25;4991484;28;20450;-67
2021/10/15 08:30:20;;;;;;;6.32;3.10;;;;;;;17.29;46.29;101191.66;4991417;28;20054;-68
2021/10/15 08:32:46;;;;;;;6.22;3.00;;;;;;;17.31;46.66;101186.00;4990876;28;20529;-68
2021/10/15 08:35:13;;;;;;;6.13;3.72;;;;;;;17.31;46.51;101178.66;4974130;28;20129;-68
2021/10/15 08:37:40;;;;;;;6.85;3.47;;;;;;;17.32;46.80;101171.28;4970956;28;20112;-67
2021/10/15 08:40:08;;;;;;;6.68;3.40;;;;;;;17.34;47.07;101175.63;4973376;28;20498;-67
2021/10/15 08:42:36;;;;;;;6.10;3.45;;;;;;;17.35;47.07;101182.88;4996078;28;20050;-68
2021/10/15 08:45:05;;;;;;;6.18;3.03;;;;;;;17.36;47.25;101190.09;4991913;28;20073;-68
2021/10/15 08:47:31;;;;;;;7.70;3.58;;;;;;;17.38;46.86;101185.31;4989859;28;20137;-68
2021/10/15 08:50:19;;;;;;;5.70;3.20;;;;;;;17.39;46.97;101191.69;4966438;28;20142;-68
2021/10/15 08:52:45;;;;;;;7.55;3.35;;;;;;;17.40;46.95;101191.53;4991327;28;20057;-68
2021/10/15 08:55:31;;;;;;;4.63;3.00;;;;;;;17.42;47.24;101191.41;4996723;28;20081;-67
2021/10/15 08:57:59;;;;;;;6.88;3.40;;;;;;;17.47;47.24;101191.84;4963797;28;20058;-68
2021/10/15 09:00:33;;;;;;;5.40;3.30;;;;;;;17.50;46.89;101186.97;4994161;28;20054;-68
2021/10/15 09:03:19;;;;;;;5.05;3.00;;;;;;;17.53;47.16;101193.19;4975676;28;20042;-68
2021/10/15 09:06:00;;;;;;;5.30;3.15;;;;;;;17.54;47.09;101192.19;4990063;28;20493;-67
2021/10/15 09:08:50;;;;;;;5.85;2.92;;;;;;;17.55;47.32;101202.13;4986615;28;20054;-67
2021/10/15 09:11:30;;;;;;;6.63;3.40;;;;;;;17.57;47.64;101205.63;4994324;28;20125;-68
2021/10/15 09:14:16;;;;;;;5.38;3.30;;;;;;;17.59;47.82;101228.31;4989186;28;20469;-67
2021/10/15 09:17:00;;;;;;;6.32;3.47;;;;;;;17.61;47.83;101226.31;4981045;28;20548;-68
2021/10/15 09:19:41;;;;;;;5.22;3.08;;;;;;;17.63;48.12;101227.94;4988885;28;20042;-68
2021/10/15 09:22:22;;;;;;;6.20;3.60;;;;;;;17.64;48.15;101232.41;4973947;28;20560;-67
2021/10/15 09:24:54;;;;;;;6.55;3.40;;;;;;;17.66;48.51;101241.41;4989042;28;20068;-67
2021/10/15 09:27:25;;;;;;;5.93;3.63;;;;;;;17.67;48.39;101251.38;4965115;28;20069;-67
2021/10/15 09:30:07;;;;;;;6.68;3.88;;;;;;;17.70;49.04;101259.34;4990883;28;20501;-68
2021/10/15 09:32:40;;;;;;;6.78;3.63;;;;;;;17.69;48.56;101249.38;4971978;28;20046;-68
2021/10/15 09:35:09;;;;;;;6.85;3.80;;;;;;;17.70;48.64;101261.22;4991176;28;20371;-69
2021/10/15 09:37:39;;;;;;;6.50;3.83;;;;;;;17.73;48.96;101258.19;4988746;28;20137;-67
2021/10/15 09:40:08;;;;;;;5.85;3.65;;;;;;;17.72;48.37;101250.94;4994434;28;20138;-69
2021/10/15 09:42:40;;;;;;;7.75;3.50;;;;;;;17.75;48.86;101261.66;4989734;28;20128;-69
2021/10/15 09:45:16;;;;;;;7.70;3.90;;;;;;;17.75;48.78;101261.66;4974071;28;20652;-69
2021/10/15 09:47:43;;;;;;;7.07;4.28;;;;;;;17.73;48.84;101275.53;4967752;28;20042;-69
2021/10/15 09:50:11;;;;;;;6.18;3.85;;;;;;;17.74;48.74;101270.91;4988320;28;20050;-69
2021/10/15 09:52:42;;;;;;;6.85;4.05;;;;;;;17.74;48.78;101271.78;4987801;28;20077;-68
2021/10/15 09:55:14;;;;;;;6.22;3.55;;;;;;;17.74;48.73;101277.28;4970644;28;20563;-68
2021/10/15 09:57:41;;;;;;;7.00;3.90;;;;;;;17.76;49.24;101272.50;4986069;28;20512;-68
2021/10/15 10:00:12;;;;;;;6.80;3.88;;;;;;;17.79;49.76;101280.47;4973926;28;20058;-68
2021/10/15 10:02:39;;;;;;;7.45;3.60;;;;;;;17.77;49.11;101282.50;4989800;28;20065;-69
2021/10/15 10:05:15;;;;;;;6.32;3.88;;;;;;;17.81;49.36;101283.06;4971275;28;20567;-69
2021/10/15 10:07:43;;;;;;;6.47;3.58;;;;;;;17.80;49.16;101287.69;4988242;28;20078;-68
2021/10/15 10:10:13;;;;;;;5.63;3.90;;;;;;;17.82;49.36;101293.94;4971157;28;20054;-69
2021/10/15 10:12:41;;;;;;;6.60;3.90;;;;;;;17.83;49.33;101289.31;4987147;28;20047;-69
2021/10/15 10:15:10;;;;;;;8.10;3.85;;;;;;;17.85;49.54;101290.91;4977850;28;20054;-69
2021/10/15 10:17:44;;;;;;;8.48;3.75;;;;;;;17.87;50.12;101291.63;4990759;28;20050;-69
2021/10/15 10:20:16;;;;;;;5.85;3.47;;;;;;;17.87;49.63;101293.53;4990161;28;20401;-70
2021/10/15 10:22:56;;;;;;;6.07;3.70;;;;;;;17.87;50.38;101299.88;4989297;28;20053;-69
2021/10/15 10:25:24;;;;;;;5.68;3.83;;;;;;;17.87;49.36;101301.78;4990621;28;20305;-69
2021/10/15 10:27:53;;;;;;;6.22;3.85;;;;;;;17.88;49.36;101318.09;4974742;28;20044;-69
2021/10/15 10:30:35;;;;;;;6.72;3.42;;;;;;;17.90;49.95;101319.84;4984042;28;20112;-69
2021/10/15 10:33:03;;;;;;;3.90;2.83;;;;;;;17.86;49.34;101324.75;4992911;28;20720;-69
2021/10/15 10:35:31;;;;;;;3.60;2.35;;;;;;;17.88;48.96;101330.94;4990976;28;20108;-70
2021/10/15 10:38:19;;;;;;;3.60;2.20;;;;;;;17.87;49.67;101332.81;4974366;28;20134;-70
2021/10/15 10:40:59;;;;;;;3.50;1.80;;;;;;;17.86;49.71;101336.59;4995478;28;20047;-69
2021/10/15 10:43:27;;;;;;;3.13;1.90;;;;;;;17.86;49.33;101333.88;4986417;28;20073;-70
2021/10/15 10:46:27;;;;;;;4.35;2.40;;;;;;;17.80;49.62;101334.38;4988746;28;20054;-70
2021/10/15 10:48:54;;;;;;;3.65;1.50;;;;;;;17.85;49.55;101348.59;4957168;28;20077;-70
2021/10/15 10:51:23;;;;;;;2.97;1.60;;;;;;;17.87;49.34;101340.22;4985355;28;20047;-70
2021/10/15 10:54:02;;;;;;;2.65;1.42;;;;;;;17.87;49.48;101343.81;4987603;28;20493;-71
2021/10/15 10:56:50;;;;;;;2.88;1.70;;;;;;;17.87;49.68;101348.47;4967806;28;20058;-70
2021/10/15 10:59:18;;;;;;;2.58;1.67;;;;;;;17.83;49.59;101349.72;4984885;28;20046;-70
2021/10/15 11:01:46;;;;;;;3.35;2.05;;;;;;;17.85;49.59;101356.84;4977170;28;20666;-70
2021/10/15 11:04:51;;;;;;;2.53;1.70;;;;;;;17.88;49.98;101363.91;4982861;28;20058;-70
2021/10/15 11:07:20;;;;;;;3.08;1.48;;;;;;;17.84;49.73;101370.72;4969833;28;20144;-70
2021/10/15 11:09:57;;;;;;;3.20;1.30;;;;;;;17.90;49.55;101374.78;4972446;28;20046;-70
2021/10/15 11:12:26;;;;;;;2.78;1.20;;;;;;;17.91;49.56;101379.25;4985708;28;20104;-70
2021/10/15 11:15:00;;;;;;;2.67;1.10;;;;;;;17.93;49.30;101374.50;4980885;28;20047;-71
2021/10/15 11:17:48;;;;;;;1.70;0.80;;;;;;;17.90;49.63;101386.63;4992624;28;20121;-71
2021/10/15 11:20:20;;;;;;;2.47;0.88;;;;;;;17.92;49.43;101389.25;4992301;28;20046;-71
2021/10/15 11:23:05;;;;;;;2.75;1.00;;;;;;;17.94;49.52;101381.75;4986416;28;20130;-70
2021/10/15 11:25:41;;;;;;;1.63;0.88;;;;;;;17.94;48.91;101384.50;4992877;28;20047;-71
2021/10/15 11:28:16;;;;;;;2.10;0.90;;;;;;;17.95;49.09;101391.75;4993183;28;20046;-71
2021/10/15 11:30:51;;;;;;;1.52;0.80;;;;;;;17.94;49.93;101387.25;4990159;28;20138;-70
2021/10/15 11:33:21;;;;;;;2.53;1.10;;;;;;;17.95;49.13;101392.59;4985036;28;20073;-69
2021/10/15 11:35:51;;;;;;;1.20;0.70;;;;;;;17.96;49.39;101386.06;4990139;28;20061;-71
2021/10/15 11:38:20;;;;;;;1.50;0.90;;;;;;;17.96;49.41;101374.22;4992253;28;20516;-70
2021/10/15 11:40:48;;;;;;;1.90;0.80;;;;;;;17.97;49.40;101390.56;4992222;28;20536;-70
2021/10/15 11:43:27;;;;;;;1.27;0.70;;;;;;;18.02;49.29;101384.69;4995044;28;20053;-69
2021/10/15 11:45:59;;;;;;;1.33;0.70;;;;;;;18.03;49.28;101398.28;4982256;28;20050;-69
2021/10/15 11:48:37;;;;;;;1.80;0.70;;;;;;;18.05;49.74;101401.75;4990485;28;20042;-70
2021/10/15 11:51:16;;;;;;;2.00;0.75;;;;;;;18.11;49.41;101394.84;4988931;28;20425;-69
2021/10/15 11:53:46;;;;;;;2.05;0.80;;;;;;;18.14;49.61;101397.31;4975284;28;20077;-70